sensor_id;sensor_type;location;lat;lon;timestamp;P1;durP1;ratioP1;P2;durP2;ratioP2
16673;SDS011;8450;52.654;10.326;2023-02-16T07:06:32;42.17;;;28.00;;
16673;SDS011;8450;52.654;10.326;2023-02-16T07:08:58;39.67;;;26.50;;
16673;SDS011;8450;52.654;10.326;2023-02-16T07:11:23;42.30;;;27.90;;
16673;SDS011;8450;52.654;10.326;2023-02-16T07:13:49;41.10;;;27.33;;
16673;SDS011;8450;52.654;10.326;2023-02-16T07:16:14;35.70;;;25.17;;
16673;SDS011;8450;52.654;10.326;2023-02-16T07:18:40;46.07;;;29.33;;
16673;SDS011;8450;52.654;10.326;2023-02-16T07:21:06;40.77;;;28.03;;
16673;SDS011;8450;52.654;10.326;2023-02-16T07:23:32;41.17;;;27.50;;
16673;SDS011;8450;52.654;10.326;2023-02-16T07:25:58;45.43;;;27.60;;
16673;SDS011;8450;52.654;10.326;2023-02-16T07:28:24;41.23;;;27.43;;
16673;SDS011;8450;52.654;10.326;2023-02-16T07:30:49;37.60;;;27.03;;
16673;SDS011;8450;52.654;10.326;2023-02-16T07:33:15;44.20;;;28.83;;
16673;SDS011;8450;52.654;10.326;2023-02-16T07:35:41;43.17;;;28.43;;
16673;SDS011;8450;52.654;10.326;2023-02-16T07:38:07;41.27;;;27.50;;
16673;SDS011;8450;52.654;10.326;2023-02-16T07:40:32;46.00;;;26.87;;
16673;SDS011;8450;52.654;10.326;2023-02-16T07:42:58;37.53;;;26.40;;
16673;SDS011;8450;52.654;10.326;2023-02-16T07:45:28;40.20;;;27.33;;
16673;SDS011;8450;52.654;10.326;2023-02-16T07:47:56;39.30;;;26.37;;
16673;SDS011;8450;52.654;10.326;2023-02-16T07:50:22;41.13;;;26.03;;
16673;SDS011;8450;52.654;10.326;2023-02-16T07:52:47;36.73;;;25.90;;
16673;SDS011;8450;52.654;10.326;2023-02-16T07:55:13;41.13;;;26.50;;
16673;SDS011;8450;52.654;10.326;2023-02-16T07:57:38;43.33;;;28.60;;
16673;SDS011;8450;52.654;10.326;2023-02-16T08:00:07;42.67;;;29.17;;
16673;SDS011;8450;52.654;10.326;2023-02-16T08:02:36;43.27;;;28.97;;
16673;SDS011;8450;52.654;10.326;2023-02-16T08:05:02;45.27;;;27.90;;
16673;SDS011;8450;52.654;10.326;2023-02-16T08:07:28;38.60;;;26.83;;
16673;SDS011;8450;52.654;10.326;2023-02-16T08:09:53;39.53;;;26.97;;
16673;SDS011;8450;52.654;10.326;2023-02-16T08:12:19;37.57;;;24.63;;
16673;SDS011;8450;52.654;10.326;2023-02-16T08:14:45;38.83;;;25.03;;
16673;SDS011;8450;52.654;10.326;2023-02-16T08:17:11;37.80;;;24.30;;
16673;SDS011;8450;52.654;10.326;2023-02-16T08:19:37;35.33;;;24.77;;
16673;SDS011;8450;52.654;10.326;2023-02-16T08:22:04;36.13;;;23.73;;
16673;SDS011;8450;52.654;10.326;2023-02-16T08:24:30;34.63;;;25.20;;
16673;SDS011;8450;52.654;10.326;2023-02-16T08:26:57;38.50;;;25.33;;
16673;SDS011;8450;52.654;10.326;2023-02-16T08:29:24;38.67;;;25.40;;
16673;SDS011;8450;52.654;10.326;2023-02-16T08:31:50;38.30;;;26.40;;
16673;SDS011;8450;52.654;10.326;2023-02-16T08:34:16;35.30;;;25.40;;
16673;SDS011;8450;52.654;10.326;2023-02-16T08:36:43;35.10;;;24.13;;
16673;SDS011;8450;52.654;10.326;2023-02-16T08:39:11;35.27;;;24.63;;
16673;SDS011;8450;52.654;10.326;2023-02-16T08:41:40;36.97;;;24.67;;
16673;SDS011;8450;52.654;10.326;2023-02-16T08:44:07;37.57;;;24.90;;
16673;SDS011;8450;52.654;10.326;2023-02-16T08:46:33;34.77;;;23.63;;
16673;SDS011;8450;52.654;10.326;2023-02-16T08:49:01;34.27;;;25.13;;
16673;SDS011;8450;52.654;10.326;2023-02-16T08:51:27;33.87;;;22.60;;
16673;SDS011;8450;52.654;10.326;2023-02-16T08:53:55;35.10;;;22.73;;
16673;SDS011;8450;52.654;10.326;2023-02-16T08:56:22;32.93;;;22.33;;
16673;SDS011;8450;52.654;10.326;2023-02-16T08:58:47;30.47;;;21.90;;
16673;SDS011;8450;52.654;10.326;2023-02-16T09:01:13;32.83;;;24.00;;
16673;SDS011;8450;52.654;10.326;2023-02-16T09:03:39;29.60;;;20.47;;
16673;SDS011;8450;52.654;10.326;2023-02-16T09:06:07;31.17;;;21.73;;
16673;SDS011;8450;52.654;10.326;2023-02-16T09:08:34;35.00;;;23.60;;
16673;SDS011;8450;52.654;10.326;2023-02-16T09:11:12;32.97;;;22.87;;
16673;SDS011;8450;52.654;10.326;2023-02-16T09:13:40;33.67;;;22.97;;
16673;SDS011;8450;52.654;10.326;2023-02-16T09:16:07;33.30;;;22.23;;
16673;SDS011;8450;52.654;10.326;2023-02-16T09:18:35;29.93;;;21.77;;
16673;SDS011;8450;52.654;10.326;2023-02-16T09:21:02;29.53;;;21.77;;
16673;SDS011;8450;52.654;10.326;2023-02-16T09:23:30;28.20;;;20.67;;
16673;SDS011;8450;52.654;10.326;2023-02-16T09:25:58;31.93;;;21.03;;
16673;SDS011;8450;52.654;10.326;2023-02-16T09:28:26;28.13;;;20.17;;
16673;SDS011;8450;52.654;10.326;2023-02-16T09:30:51;30.83;;;21.90;;
16673;SDS011;8450;52.654;10.326;2023-02-16T09:33:18;30.53;;;22.00;;
16673;SDS011;8450;52.654;10.326;2023-02-16T09:35:44;29.20;;;20.57;;
16673;SDS011;8450;52.654;10.326;2023-02-16T09:38:09;29.60;;;22.10;;
16673;SDS011;8450;52.654;10.326;2023-02-16T09:40:35;32.73;;;23.47;;
16673;SDS011;8450;52.654;10.326;2023-02-16T09:45:31;26.90;;;20.37;;
16673;SDS011;8450;52.654;10.326;2023-02-16T09:48:05;29.97;;;22.00;;
16673;SDS011;8450;52.654;10.326;2023-02-16T09:50:35;27.07;;;20.27;;
16673;SDS011;8450;52.654;10.326;2023-02-16T09:53:07;30.90;;;21.83;;
16673;SDS011;8450;52.654;10.326;2023-02-16T09:56:03;24.43;;;18.67;;
16673;SDS011;8450;52.654;10.326;2023-02-16T09:58:45;26.37;;;19.23;;
16673;SDS011;8450;52.654;10.326;2023-02-16T10:01:15;27.77;;;19.70;;
16673;SDS011;8450;52.654;10.326;2023-02-16T10:06:27;26.23;;;20.03;;
16673;SDS011;8450;52.654;10.326;2023-02-16T10:09:16;25.70;;;20.00;;
16673;SDS011;8450;52.654;10.326;2023-02-16T10:11:57;29.40;;;21.60;;
16673;SDS011;8450;52.654;10.326;2023-02-16T10:22:19;27.80;;;20.63;;
16673;SDS011;8450;52.654;10.326;2023-02-16T10:25:25;26.00;;;19.83;;
16673;SDS011;8450;52.654;10.326;2023-02-16T10:28:00;24.20;;;19.30;;
16673;SDS011;8450;52.654;10.326;2023-02-16T10:30:39;29.50;;;21.47;;
16673;SDS011;8450;52.654;10.326;2023-02-16T10:33:44;28.93;;;21.23;;
16673;SDS011;8450;52.654;10.326;2023-02-16T10:36:14;28.27;;;21.50;;
16673;SDS011;8450;52.654;10.326;2023-02-16T10:38:50;22.37;;;18.17;;
16673;SDS011;8450;52.654;10.326;2023-02-16T10:41:27;26.73;;;20.13;;
16673;SDS011;8450;52.654;10.326;2023-02-16T10:44:20;28.17;;;20.40;;
16673;SDS011;8450;52.654;10.326;2023-02-16T10:47:03;28.07;;;19.23;;
16673;SDS011;8450;52.654;10.326;2023-02-16T10:49:33;27.97;;;21.20;;
16673;SDS011;8450;52.654;10.326;2023-02-16T10:52:00;25.77;;;19.90;;
16673;SDS011;8450;52.654;10.326;2023-02-16T10:54:28;23.37;;;18.70;;
16673;SDS011;8450;52.654;10.326;2023-02-16T10:56:56;28.97;;;20.83;;
16673;SDS011;8450;52.654;10.326;2023-02-16T11:02:15;27.30;;;20.97;;
16673;SDS011;8450;52.654;10.326;2023-02-16T11:04:50;27.03;;;21.00;;
16673;SDS011;8450;52.654;10.326;2023-02-16T11:07:18;23.53;;;19.90;;
16673;SDS011;8450;52.654;10.326;2023-02-16T11:09:52;26.43;;;18.73;;
16673;SDS011;8450;52.654;10.326;2023-02-16T11:12:30;23.60;;;18.60;;
16673;SDS011;8450;52.654;10.326;2023-02-16T11:17:31;25.37;;;19.33;;
16673;SDS011;8450;52.654;10.326;2023-02-16T11:20:24;25.20;;;19.23;;
16673;SDS011;8450;52.654;10.326;2023-02-16T11:23:13;27.63;;;20.60;;
16673;SDS011;8450;52.654;10.326;2023-02-16T11:31:17;29.53;;;19.47;;
16673;SDS011;8450;52.654;10.326;2023-02-16T11:36:33;26.60;;;20.23;;
16673;SDS011;8450;52.654;10.326;2023-02-16T11:41:43;25.10;;;19.40;;
16673;SDS011;8450;52.654;10.326;2023-02-16T11:44:21;29.53;;;22.40;;
16673;SDS011;8450;52.654;10.326;2023-02-16T11:46:48;26.23;;;21.23;;
16673;SDS011;8450;52.654;10.326;2023-02-16T11:54:52;28.60;;;22.70;;
16673;SDS011;8450;52.654;10.326;2023-02-16T11:57:25;28.03;;;21.70;;
16673;SDS011;8450;52.654;10.326;2023-02-16T11:59:54;26.60;;;21.20;;
16673;SDS011;8450;52.654;10.326;2023-02-16T12:02:25;31.60;;;23.67;;
16673;SDS011;8450;52.654;10.326;2023-02-16T12:09:00;28.97;;;23.43;;
16673;SDS011;8450;52.654;10.326;2023-02-16T12:13:57;31.37;;;24.73;;
16673;SDS011;8450;52.654;10.326;2023-02-16T12:16:40;28.77;;;24.03;;
16673;SDS011;8450;52.654;10.326;2023-02-16T12:19:19;27.27;;;23.77;;
16673;SDS011;8450;52.654;10.326;2023-02-16T12:21:50;30.20;;;24.30;;
16673;SDS011;8450;52.654;10.326;2023-02-16T12:27:24;31.87;;;25.60;;
16673;SDS011;8450;52.654;10.326;2023-02-16T12:29:59;31.17;;;26.03;;
16673;SDS011;8450;52.654;10.326;2023-02-16T12:35:20;28.77;;;23.77;;
16673;SDS011;8450;52.654;10.326;2023-02-16T12:38:27;27.87;;;22.43;;
16673;SDS011;8450;52.654;10.326;2023-02-16T12:41:13;31.57;;;25.67;;
16673;SDS011;8450;52.654;10.326;2023-02-16T12:43:55;26.53;;;22.43;;
16673;SDS011;8450;52.654;10.326;2023-02-16T12:46:27;29.13;;;22.63;;
16673;SDS011;8450;52.654;10.326;2023-02-16T12:49:21;27.60;;;22.20;;
16673;SDS011;8450;52.654;10.326;2023-02-16T12:51:52;25.27;;;21.63;;
16673;SDS011;8450;52.654;10.326;2023-02-16T12:54:31;28.53;;;22.63;;
16673;SDS011;8450;52.654;10.326;2023-02-16T12:57:09;28.50;;;22.67;;
16673;SDS011;8450;52.654;10.326;2023-02-16T12:59:53;26.50;;;22.63;;
16673;SDS011;8450;52.654;10.326;2023-02-16T13:02:27;26.20;;;21.63;;
16673;SDS011;8450;52.654;10.326;2023-02-16T13:10:56;25.70;;;21.23;;
16673;SDS011;8450;52.654;10.326;2023-02-16T13:13:32;28.90;;;21.80;;
16673;SDS011;8450;52.654;10.326;2023-02-16T13:16:05;28.07;;;21.50;;
16673;SDS011;8450;52.654;10.326;2023-02-16T13:18:41;24.40;;;19.30;;
16673;SDS011;8450;52.654;10.326;2023-02-16T13:32:40;22.97;;;19.33;;
16673;SDS011;8450;52.654;10.326;2023-02-16T13:38:08;21.87;;;18.40;;
16673;SDS011;8450;52.654;10.326;2023-02-16T13:40:58;24.80;;;19.70;;
16673;SDS011;8450;52.654;10.326;2023-02-16T13:43:31;29.37;;;21.57;;
16673;SDS011;8450;52.654;10.326;2023-02-16T13:46:13;26.17;;;20.50;;
16673;SDS011;8450;52.654;10.326;2023-02-16T13:48:49;22.27;;;18.03;;
16673;SDS011;8450;52.654;10.326;2023-02-16T13:51:17;25.23;;;20.00;;
16673;SDS011;8450;52.654;10.326;2023-02-16T13:53:55;22.83;;;18.93;;
16673;SDS011;8450;52.654;10.326;2023-02-16T13:58:52;26.43;;;20.43;;
16673;SDS011;8450;52.654;10.326;2023-02-16T14:03:56;23.93;;;19.53;;
16673;SDS011;8450;52.654;10.326;2023-02-16T14:27:51;24.83;;;19.63;;
16673;SDS011;8450;52.654;10.326;2023-02-16T14:30:21;24.70;;;20.03;;
16673;SDS011;8450;52.654;10.326;2023-02-16T14:35:37;24.67;;;19.73;;
16673;SDS011;8450;52.654;10.326;2023-02-16T14:40:48;22.70;;;18.40;;
16673;SDS011;8450;52.654;10.326;2023-02-16T14:48:40;24.20;;;19.23;;
16673;SDS011;8450;52.654;10.326;2023-02-16T15:04:40;20.77;;;17.70;;
16673;SDS011;8450;52.654;10.326;2023-02-16T15:07:05;22.40;;;18.67;;
16673;SDS011;8450;52.654;10.326;2023-02-16T15:09:32;22.10;;;18.70;;
16673;SDS011;8450;52.654;10.326;2023-02-16T15:12:00;21.53;;;17.87;;
